createdAt,value
2023-03-11T00:00:49.576Z,9.00
2023-03-11T00:03:29.002Z,9.90
2023-03-11T00:06:00.218Z,8.70
2023-03-11T00:08:28.609Z,9.10
2023-03-11T00:11:00.542Z,9.10
2023-03-11T00:13:29.809Z,8.50
2023-03-11T00:15:59.817Z,9.20
2023-03-11T00:18:31.433Z,9.50
2023-03-11T00:21:00.418Z,8.00
2023-03-11T00:23:29.073Z,8.10
2023-03-11T00:25:57.292Z,7.70
2023-03-11T00:28:26.945Z,6.90
2023-03-11T00:30:55.465Z,6.90
2023-03-11T00:33:24.091Z,6.70
2023-03-11T00:35:52.222Z,6.10
2023-03-11T00:38:21.641Z,7.00
2023-03-11T00:40:50.291Z,6.70
2023-03-11T00:43:18.787Z,5.80
2023-03-11T00:45:46.929Z,5.70
2023-03-11T00:48:15.527Z,5.70
2023-03-11T00:50:43.687Z,5.70
2023-03-11T00:53:12.580Z,5.90
2023-03-11T00:55:41.321Z,6.20
2023-03-11T00:58:13.113Z,6.50
2023-03-11T01:00:49.942Z,6.40
2023-03-11T01:03:17.948Z,6.30
2023-03-11T01:05:47.085Z,6.70
2023-03-11T01:08:15.075Z,6.80
2023-03-11T01:10:43.284Z,6.40
2023-03-11T01:13:11.623Z,6.20
2023-03-11T01:15:39.628Z,5.30
2023-03-11T01:18:07.723Z,6.10
2023-03-11T01:20:37.313Z,6.50
2023-03-11T01:23:07.835Z,5.50
2023-03-11T01:25:36.557Z,5.70
2023-03-11T01:28:05.821Z,5.50
2023-03-11T01:30:36.552Z,5.00
2023-03-11T01:33:05.590Z,5.00
2023-03-11T01:35:33.671Z,5.40
2023-03-11T01:38:02.018Z,5.70
2023-03-11T01:40:38.677Z,5.60
2023-03-11T01:44:00.335Z,5.10
2023-03-11T01:46:54.330Z,5.30
2023-03-11T01:49:26.447Z,5.20
2023-03-11T01:52:03.828Z,4.60
2023-03-11T01:54:34.340Z,4.50
2023-03-11T01:57:09.679Z,4.60
2023-03-11T01:59:45.506Z,5.10
2023-03-11T02:02:32.800Z,4.30
2023-03-11T02:05:03.251Z,13.00
2023-03-11T02:07:31.602Z,7.10
2023-03-11T02:10:00.678Z,3.70
2023-03-11T02:12:34.170Z,3.20
2023-03-11T02:15:03.696Z,3.10
2023-03-11T02:17:32.066Z,3.40
2023-03-11T02:20:12.436Z,3.30
2023-03-11T02:22:43.139Z,4.10
2023-03-11T02:25:26.642Z,3.90
2023-03-11T02:27:57.002Z,3.90
2023-03-11T02:30:27.646Z,3.30
2023-03-11T02:32:56.966Z,3.40
2023-03-11T02:35:25.655Z,3.10
2023-03-11T02:37:55.636Z,3.90
2023-03-11T02:40:33.368Z,4.50
2023-03-11T02:43:05.932Z,5.00
2023-03-11T02:45:35.943Z,5.00
2023-03-11T02:48:04.479Z,5.60
2023-03-11T02:50:34.624Z,5.10
2023-03-11T02:53:04.881Z,5.30
2023-03-11T02:55:33.512Z,5.30
2023-03-11T02:58:01.764Z,5.00
2023-03-11T03:04:34.149Z,3.90
2023-03-11T03:07:02.740Z,5.50
2023-03-11T03:09:32.833Z,4.30
2023-03-11T03:12:00.895Z,4.00
2023-03-11T03:14:31.126Z,3.80
2023-03-11T03:16:59.488Z,3.20
2023-03-11T03:19:27.674Z,2.60
2023-03-11T03:21:56.163Z,2.00
2023-03-11T03:24:24.527Z,2.20
2023-03-11T03:26:52.836Z,3.20
2023-03-11T03:29:21.012Z,2.60
2023-03-11T03:31:50.520Z,2.50
2023-03-11T03:34:18.612Z,2.50
2023-03-11T03:36:46.676Z,3.10
2023-03-11T03:39:20.098Z,3.20
2023-03-11T03:41:49.410Z,3.30
2023-03-11T03:44:17.588Z,1.80
2023-03-11T03:46:46.159Z,2.00
2023-03-11T03:49:14.241Z,1.60
2023-03-11T03:51:42.340Z,3.10
2023-03-11T03:54:19.752Z,3.00
2023-03-11T03:56:47.807Z,2.50
2023-03-11T03:59:16.138Z,2.60
2023-03-11T04:01:49.058Z,2.60
2023-03-11T04:04:17.450Z,2.80
2023-03-11T04:06:45.756Z,2.80
2023-03-11T04:09:14.232Z,2.60
2023-03-11T04:11:42.619Z,3.00
2023-03-11T04:14:11.751Z,2.70
2023-03-11T04:16:43.720Z,2.80
2023-03-11T04:19:13.033Z,2.80
2023-03-11T04:21:41.700Z,2.80
2023-03-11T04:24:09.813Z,3.10
2023-03-11T04:26:39.419Z,2.80
2023-03-11T04:29:10.138Z,3.50
2023-03-11T04:31:42.189Z,3.10
2023-03-11T04:34:10.401Z,3.10
2023-03-11T04:36:38.855Z,3.50
2023-03-11T04:39:08.207Z,3.20
2023-03-11T04:41:40.499Z,3.20
2023-03-11T04:44:09.021Z,3.80
2023-03-11T04:46:37.266Z,3.40
2023-03-11T04:49:06.408Z,3.80
2023-03-11T04:51:34.604Z,3.80
2023-03-11T04:54:02.792Z,3.70
2023-03-11T04:56:31.168Z,3.90
2023-03-11T04:58:59.922Z,3.70
2023-03-11T05:01:28.995Z,4.00
2023-03-11T05:03:57.424Z,4.00
2023-03-11T05:06:25.951Z,3.10
2023-03-11T05:08:54.530Z,2.70
2023-03-11T05:11:23.014Z,3.30
2023-03-11T05:13:51.103Z,2.90
2023-03-11T05:16:20.003Z,3.10
2023-03-11T05:18:48.346Z,2.40
2023-03-11T05:21:16.910Z,2.60
2023-03-11T05:23:45.565Z,2.50
2023-03-11T05:26:14.745Z,2.70
2023-03-11T05:28:44.254Z,3.00
2023-03-11T05:31:12.655Z,2.80
2023-03-11T05:33:41.239Z,2.20
2023-03-11T05:36:12.066Z,2.30
2023-03-11T05:38:42.864Z,2.30
2023-03-11T05:41:11.645Z,1.80
2023-03-11T05:43:40.244Z,1.80
2023-03-11T05:46:08.487Z,2.30
2023-03-11T05:48:36.968Z,1.80
2023-03-11T05:51:10.073Z,1.90
2023-03-11T05:53:39.312Z,1.50
2023-03-11T05:56:07.751Z,1.50
2023-03-11T05:58:35.877Z,1.40
2023-03-11T06:01:09.521Z,1.70
2023-03-11T06:03:39.336Z,1.20
2023-03-11T06:06:09.630Z,1.50
2023-03-11T06:08:46.032Z,1.20
2023-03-11T06:11:17.122Z,1.00
2023-03-11T06:13:45.746Z,1.30
2023-03-11T06:16:14.850Z,1.30
2023-03-11T06:23:42.034Z,1.00
2023-03-11T07:17:58.635Z,1.30
2023-03-11T07:20:27.106Z,1.40
2023-03-11T07:22:55.528Z,1.60
2023-03-11T07:25:23.669Z,1.60
2023-03-11T07:27:52.296Z,1.60
2023-03-11T07:30:22.105Z,1.70
2023-03-11T07:32:50.688Z,1.50
2023-03-11T07:35:19.499Z,1.70
2023-03-11T07:37:47.627Z,2.10
2023-03-11T07:40:17.233Z,2.30
2023-03-11T07:42:45.190Z,2.70
2023-03-11T07:45:13.913Z,3.40
2023-03-11T07:47:42.058Z,4.40
2023-03-11T07:50:11.112Z,3.50
2023-03-11T07:52:39.859Z,4.00
2023-03-11T07:55:09.201Z,4.20
2023-03-11T07:57:37.296Z,4.50
2023-03-11T08:00:06.147Z,4.60
2023-03-11T08:02:40.091Z,4.30
2023-03-11T08:05:10.790Z,4.20
2023-03-11T08:07:39.153Z,3.90
2023-03-11T08:10:08.144Z,3.60
2023-03-11T08:12:38.662Z,2.70
2023-03-11T08:15:07.431Z,2.20
2023-03-11T08:17:36.088Z,2.30
2023-03-11T08:20:05.219Z,1.80
2023-03-11T08:22:33.372Z,1.70
2023-03-11T08:25:01.616Z,1.50
2023-03-11T08:27:29.970Z,1.50
2023-03-11T08:29:59.301Z,1.40
2023-03-11T08:32:27.431Z,1.10
2023-03-11T08:34:55.833Z,1.10
2023-03-11T08:37:24.586Z,1.40
2023-03-11T08:39:53.394Z,1.20
2023-03-11T08:42:21.419Z,1.10
2023-03-11T08:44:52.149Z,1.00
2023-03-11T08:47:20.711Z,1.00
2023-03-11T08:49:50.610Z,1.10
2023-03-11T08:52:18.896Z,0.90
2023-03-11T08:54:47.482Z,1.10
2023-03-11T08:57:16.922Z,1.00
2023-03-11T08:59:47.068Z,1.10
2023-03-11T09:02:15.730Z,1.10
2023-03-11T09:04:44.037Z,1.00
2023-03-11T09:07:17.809Z,1.10
2023-03-11T09:09:46.199Z,1.00
2023-03-11T09:12:14.390Z,1.00
2023-03-11T09:14:44.008Z,1.10
2023-03-11T09:17:12.537Z,1.10
2023-03-11T09:19:40.578Z,1.10
2023-03-11T09:22:08.602Z,0.80
2023-03-11T09:24:36.801Z,1.00
2023-03-11T09:27:04.857Z,0.70
2023-03-11T09:29:34.036Z,0.80
2023-03-11T09:32:02.750Z,0.80
2023-03-11T09:34:31.320Z,0.90
2023-03-11T09:37:01.534Z,0.80
2023-03-11T09:39:30.026Z,0.80
2023-03-11T09:41:59.894Z,0.70
2023-03-11T09:44:27.864Z,0.80
2023-03-11T09:47:30.225Z,0.90
2023-03-11T09:50:23.523Z,0.80
2023-03-11T09:53:04.520Z,0.90
2023-03-11T09:55:46.408Z,0.80
2023-03-11T09:58:51.258Z,0.70
2023-03-11T10:01:33.369Z,0.60
2023-03-11T10:04:32.213Z,0.60
2023-03-11T10:07:02.434Z,0.60
2023-03-11T10:09:54.191Z,0.80
2023-03-11T10:12:22.152Z,0.70
2023-03-11T10:15:21.058Z,0.70
2023-03-11T10:18:30.777Z,0.60
2023-03-11T10:26:05.336Z,0.80
2023-03-11T11:19:48.803Z,0.80
2023-03-11T11:22:20.472Z,0.70
2023-03-11T11:24:54.325Z,0.80
2023-03-11T11:27:25.518Z,0.90
2023-03-11T11:30:15.770Z,0.80
2023-03-11T11:32:44.221Z,0.70
2023-03-11T11:35:14.750Z,1.20
2023-03-11T11:38:01.617Z,0.60
2023-03-11T11:40:33.517Z,0.70
2023-03-11T11:43:20.045Z,1.20
2023-03-11T11:45:59.510Z,1.00
2023-03-11T11:48:45.124Z,0.60
2023-03-11T11:51:32.362Z,1.90
2023-03-11T11:54:07.297Z,0.80
2023-03-11T11:56:35.352Z,1.00
2023-03-11T11:59:14.116Z,0.90
2023-03-11T12:02:14.472Z,0.70
2023-03-11T12:04:45.271Z,0.60
2023-03-11T12:07:42.634Z,0.70
2023-03-11T12:10:32.310Z,0.80
2023-03-11T12:13:29.311Z,0.90
2023-03-11T12:16:23.220Z,0.80
2023-03-11T12:18:53.868Z,1.10
2023-03-11T12:21:34.083Z,0.80
2023-03-11T12:24:21.918Z,0.80
2023-03-11T12:26:53.989Z,0.90
2023-03-11T12:29:45.728Z,1.00
2023-03-11T12:32:30.446Z,0.80
2023-03-11T12:35:19.912Z,0.70
2023-03-11T12:38:05.240Z,0.80
2023-03-11T12:40:43.172Z,0.80
2023-03-11T12:43:30.230Z,0.70
2023-03-11T12:46:01.129Z,0.80
2023-03-11T12:48:35.182Z,0.70
2023-03-11T12:51:04.096Z,0.80
2023-03-11T12:53:49.050Z,0.80
2023-03-11T12:56:45.535Z,0.80
2023-03-11T12:59:28.839Z,1.10
2023-03-11T13:02:10.595Z,1.30
2023-03-11T13:04:47.929Z,1.20
2023-03-11T13:07:22.488Z,0.70
2023-03-11T13:10:15.785Z,1.00
2023-03-11T13:12:48.671Z,1.10
2023-03-11T13:15:20.010Z,0.90
2023-03-11T13:18:03.138Z,0.90
2023-03-11T13:20:42.909Z,1.10
2023-03-11T13:23:34.638Z,1.00
2023-03-11T13:26:27.408Z,1.30
2023-03-11T13:29:11.597Z,1.30
2023-03-11T13:32:17.901Z,1.30
2023-03-11T13:35:07.991Z,1.40
2023-03-11T13:37:42.837Z,1.30
2023-03-11T13:40:25.467Z,1.50
2023-03-11T13:42:58.574Z,1.70
2023-03-11T13:45:36.993Z,1.40
2023-03-11T13:48:05.143Z,1.20
2023-03-11T13:50:40.535Z,1.20
2023-03-11T13:53:17.659Z,1.90
2023-03-11T13:55:47.133Z,1.50
2023-03-11T13:58:23.573Z,1.70
2023-03-11T14:01:00.505Z,1.40
2023-03-11T14:03:33.938Z,2.00
2023-03-11T14:06:19.306Z,1.80
2023-03-11T14:08:56.520Z,1.90
2023-03-11T14:11:31.680Z,2.10
2023-03-11T14:14:00.075Z,1.90
2023-03-11T14:16:44.228Z,1.50
2023-03-11T14:19:18.289Z,1.70
2023-03-11T14:21:50.377Z,2.00
2023-03-11T14:24:23.309Z,2.00
2023-03-11T14:26:56.231Z,1.70
2023-03-11T14:29:30.238Z,1.70
2023-03-11T14:31:58.377Z,1.50
2023-03-11T14:34:28.923Z,1.70
2023-03-11T14:36:59.518Z,1.50
2023-03-11T14:39:32.570Z,1.60
2023-03-11T14:42:26.266Z,2.30
2023-03-11T14:45:01.998Z,1.90
2023-03-11T14:47:38.517Z,2.10
2023-03-11T14:50:14.033Z,2.00
2023-03-11T14:53:05.364Z,1.80
2023-03-11T14:55:40.442Z,1.70
2023-03-11T14:58:26.457Z,1.60
2023-03-11T15:01:00.423Z,1.70
2023-03-11T15:03:35.635Z,2.10
2023-03-11T15:06:14.264Z,1.80
2023-03-11T15:08:49.280Z,2.00
2023-03-11T15:11:17.188Z,2.20
2023-03-11T15:13:47.587Z,2.40
2023-03-11T15:16:35.465Z,2.20
2023-03-11T15:19:28.512Z,3.80
2023-03-11T15:21:59.929Z,2.60
2023-03-11T15:24:31.770Z,2.40
2023-03-11T15:27:06.398Z,2.20
2023-03-11T15:29:36.018Z,2.10
2023-03-11T15:32:37.860Z,2.60
2023-03-11T15:35:10.710Z,1.80
2023-03-11T15:37:41.009Z,2.20
2023-03-11T15:40:12.515Z,2.20
2023-03-11T15:42:40.793Z,2.00
2023-03-11T15:45:14.117Z,2.10
2023-03-11T15:47:43.119Z,2.00
2023-03-11T15:50:24.892Z,2.40
2023-03-11T15:52:57.688Z,2.70
2023-03-11T15:55:27.412Z,2.50
2023-03-11T15:58:05.658Z,2.80
2023-03-11T16:00:35.010Z,2.40
2023-03-11T16:03:06.239Z,2.70
2023-03-11T16:05:34.666Z,2.70
2023-03-11T16:08:02.772Z,2.50
2023-03-11T16:10:30.835Z,3.20
2023-03-11T16:12:59.195Z,2.60
2023-03-11T16:15:34.543Z,2.50
2023-03-11T16:18:05.352Z,3.30
2023-03-11T16:20:54.266Z,2.70
2023-03-11T16:23:25.907Z,3.50
2023-03-11T16:25:59.689Z,3.30
2023-03-11T16:28:28.325Z,5.30
2023-03-11T16:30:56.452Z,4.00
2023-03-11T16:33:24.758Z,2.90
2023-03-11T16:35:52.711Z,3.10
2023-03-11T16:38:23.210Z,3.90
2023-03-11T16:41:00.685Z,4.60
2023-03-11T16:43:31.708Z,3.60
2023-03-11T16:45:59.756Z,3.30
2023-03-11T16:48:27.979Z,2.80
2023-03-11T16:50:56.327Z,2.50
2023-03-11T16:53:26.287Z,1.90
2023-03-11T16:55:54.370Z,2.30
2023-03-11T16:58:22.646Z,2.10
2023-03-11T17:00:50.680Z,2.20
2023-03-11T17:03:21.915Z,2.50
2023-03-11T17:05:50.259Z,3.20
2023-03-11T17:08:18.491Z,3.10
2023-03-11T17:10:46.761Z,2.50
2023-03-11T17:13:17.776Z,2.30
2023-03-11T17:15:58.419Z,2.10
2023-03-11T17:18:27.502Z,2.50
2023-03-11T17:20:55.830Z,2.40
2023-03-11T17:23:24.461Z,2.80
2023-03-11T17:25:52.449Z,3.40
2023-03-11T17:28:20.486Z,2.90
2023-03-11T17:30:48.518Z,2.90
2023-03-11T17:33:16.532Z,2.90
2023-03-11T17:35:44.726Z,3.90
2023-03-11T17:38:14.719Z,2.80
2023-03-11T17:40:44.056Z,3.10
2023-03-11T17:43:12.440Z,2.80
2023-03-11T17:45:41.049Z,3.60
2023-03-11T17:48:09.017Z,4.10
2023-03-11T17:50:41.064Z,3.50
2023-03-11T17:53:09.878Z,4.90
2023-03-11T17:55:40.258Z,3.00
2023-03-11T17:58:09.173Z,3.30
2023-03-11T18:00:37.860Z,3.90
2023-03-11T18:03:05.951Z,4.00
2023-03-11T18:05:34.012Z,3.20
2023-03-11T18:08:01.929Z,3.10
2023-03-11T18:10:29.963Z,2.70
2023-03-11T18:12:57.973Z,2.50
2023-03-11T18:15:25.917Z,2.10
2023-03-11T18:17:57.046Z,2.10
2023-03-11T18:20:25.174Z,2.40
2023-03-11T18:22:53.363Z,1.90
2023-03-11T18:25:21.420Z,2.50
2023-03-11T18:27:49.429Z,2.40
2023-03-11T18:30:17.642Z,2.50
2023-03-11T18:32:45.717Z,2.80
2023-03-11T18:35:14.321Z,2.70
2023-03-11T18:37:42.313Z,2.20
2023-03-11T18:40:11.762Z,2.50
2023-03-11T18:42:39.887Z,2.80
2023-03-11T18:45:08.783Z,2.60
2023-03-11T18:47:36.694Z,2.40
2023-03-11T18:50:05.621Z,2.80
2023-03-11T18:52:33.735Z,2.80
2023-03-11T18:55:01.712Z,3.50
2023-03-11T18:57:29.835Z,2.90
2023-03-11T18:59:57.828Z,3.00
2023-03-11T19:02:26.382Z,3.00
2023-03-11T19:04:54.601Z,3.30
2023-03-11T19:07:22.765Z,3.10
2023-03-11T19:09:50.769Z,3.20
2023-03-11T19:12:19.163Z,3.30
2023-03-11T19:14:47.298Z,3.30
2023-03-11T19:17:18.252Z,3.40
2023-03-11T19:19:46.278Z,3.50
2023-03-11T19:22:14.278Z,3.40
2023-03-11T19:24:42.487Z,4.40
2023-03-11T19:27:10.492Z,3.80
2023-03-11T19:29:38.412Z,3.20
2023-03-11T19:32:06.476Z,4.00
2023-03-11T19:34:35.196Z,2.80
2023-03-11T19:37:03.186Z,3.10
2023-03-11T19:39:31.154Z,3.70
2023-03-11T19:41:59.211Z,3.70
2023-03-11T19:44:27.182Z,3.60
2023-03-11T19:46:55.306Z,3.00
2023-03-11T19:49:23.415Z,2.90
2023-03-11T19:51:53.076Z,3.80
2023-03-11T19:54:21.172Z,4.60
2023-03-11T19:56:50.018Z,4.70
2023-03-11T19:59:18.065Z,4.20
2023-03-11T20:01:46.602Z,4.80
2023-03-11T20:04:15.398Z,4.50
2023-03-11T20:06:44.186Z,4.70
2023-03-11T20:09:13.360Z,5.40
2023-03-11T20:11:41.758Z,4.80
2023-03-11T20:14:10.881Z,5.10
2023-03-11T20:16:39.309Z,5.40
2023-03-11T20:19:07.881Z,5.80
2023-03-11T20:21:39.428Z,5.90
2023-03-11T20:24:08.035Z,6.00
2023-03-11T20:26:36.924Z,5.20
2023-03-11T20:29:05.759Z,3.70
2023-03-11T20:31:34.090Z,2.90
2023-03-11T20:34:02.473Z,3.20
2023-03-11T20:36:33.136Z,3.00
2023-03-11T20:39:01.661Z,3.00
2023-03-11T20:41:34.748Z,3.20
2023-03-11T20:44:04.400Z,3.20
2023-03-11T20:46:34.023Z,2.90
2023-03-11T20:49:03.069Z,2.80
2023-03-11T20:51:31.053Z,3.10
2023-03-11T20:53:58.958Z,3.10
2023-03-11T20:56:27.105Z,3.30
2023-03-11T20:58:59.398Z,3.30
2023-03-11T21:01:33.076Z,3.40
2023-03-11T21:04:03.695Z,3.10
2023-03-11T21:06:37.425Z,3.30
2023-03-11T21:09:09.273Z,2.80
2023-03-11T21:11:38.035Z,3.10
2023-03-11T21:14:07.529Z,2.70
2023-03-11T21:16:37.881Z,2.80
2023-03-11T21:19:09.101Z,2.70
2023-03-11T21:21:37.704Z,3.50
2023-03-11T21:24:06.241Z,3.10
2023-03-11T21:26:34.748Z,2.70
2023-03-11T21:29:03.016Z,4.60
2023-03-11T21:31:31.529Z,2.80
2023-03-11T21:34:01.295Z,2.90
2023-03-11T21:36:30.230Z,3.10
2023-03-11T21:38:58.378Z,3.20
2023-03-11T21:41:27.914Z,3.00
2023-03-11T21:43:57.701Z,2.80
2023-03-11T21:46:29.840Z,3.50
2023-03-11T21:48:59.021Z,3.40
2023-03-11T21:51:27.960Z,3.60
2023-03-11T21:53:56.873Z,3.60
2023-03-11T21:56:25.273Z,3.20
2023-03-11T21:58:53.940Z,3.80
2023-03-11T22:01:22.354Z,3.40
2023-03-11T22:03:50.971Z,2.70
2023-03-11T22:06:19.574Z,2.90
2023-03-11T22:08:48.171Z,2.80
2023-03-11T22:11:19.621Z,2.70
2023-03-11T22:13:49.643Z,3.10
2023-03-11T22:16:19.115Z,2.90
2023-03-11T22:18:47.454Z,3.20
2023-03-11T22:21:16.663Z,2.70
2023-03-11T22:23:45.152Z,2.70
2023-03-11T22:26:14.806Z,3.20
2023-03-11T22:28:43.330Z,2.60
2023-03-11T22:31:14.990Z,3.00
2023-03-11T22:33:43.283Z,2.80
2023-03-11T22:36:11.377Z,2.90
2023-03-11T22:38:42.033Z,2.80
2023-03-11T22:41:11.850Z,2.90
2023-03-11T22:43:40.758Z,2.70
2023-03-11T22:46:09.065Z,2.60
2023-03-11T22:48:37.302Z,2.90
2023-03-11T22:51:05.764Z,2.70
2023-03-11T22:53:33.961Z,2.70
2023-03-11T22:56:11.544Z,2.20
2023-03-11T22:58:40.463Z,2.70
2023-03-11T23:01:09.631Z,2.30
2023-03-11T23:03:38.936Z,2.80
2023-03-11T23:06:09.297Z,3.00
2023-03-11T23:08:37.650Z,2.30
2023-03-11T23:11:11.495Z,2.50
2023-03-11T23:13:40.633Z,2.70
2023-03-11T23:16:14.156Z,2.70
2023-03-11T23:18:43.642Z,2.90
2023-03-11T23:21:17.157Z,2.50
2023-03-11T23:23:45.889Z,2.70
2023-03-11T23:26:15.716Z,2.90
2023-03-11T23:28:45.587Z,2.50
2023-03-11T23:31:15.623Z,2.80
2023-03-11T23:33:44.834Z,2.40
2023-03-11T23:36:17.398Z,2.80
2023-03-11T23:38:47.326Z,2.80
2023-03-11T23:41:18.454Z,2.70
2023-03-11T23:43:46.778Z,3.20
2023-03-11T23:46:15.789Z,2.60
2023-03-11T23:48:44.006Z,2.80
2023-03-11T23:51:13.287Z,2.70
2023-03-11T23:53:41.369Z,2.60
2023-03-11T23:56:17.026Z,2.90
2023-03-11T23:58:46.149Z,3.20
